sensor_id;sensor_type;location;lat;lon;timestamp;pressure;altitude;pressure_sealevel;temperature;humidity
64086;BME280;50333;47.436;21.390;2023-01-29T00:02:26;101225.16;;;2.00;67.26
64086;BME280;50333;47.436;21.390;2023-01-29T00:04:54;101221.03;;;2.20;67.67
64086;BME280;50333;47.436;21.390;2023-01-29T00:07:25;101230.91;;;2.02;68.16
64086;BME280;50333;47.436;21.390;2023-01-29T00:09:53;101224.81;;;1.66;69.52
64086;BME280;50333;47.436;21.390;2023-01-29T00:12:21;101238.09;;;1.85;68.69
64086;BME280;50333;47.436;21.390;2023-01-29T00:14:48;101239.03;;;1.99;68.02
64086;BME280;50333;47.436;21.390;2023-01-29T00:17:16;101239.72;;;1.56;69.21
64086;BME280;50333;47.436;21.390;2023-01-29T00:19:46;101241.94;;;1.44;70.40
64086;BME280;50333;47.436;21.390;2023-01-29T00:22:13;101237.13;;;1.56;69.83
64086;BME280;50333;47.436;21.390;2023-01-29T00:24:41;101233.91;;;1.84;68.75
64086;BME280;50333;47.436;21.390;2023-01-29T00:27:10;101241.22;;;2.02;68.31
64086;BME280;50333;47.436;21.390;2023-01-29T00:29:38;101245.19;;;1.68;68.57
64086;BME280;50333;47.436;21.390;2023-01-29T00:32:06;101243.28;;;1.40;69.41
64086;BME280;50333;47.436;21.390;2023-01-29T00:34:34;101251.69;;;1.64;68.53
64086;BME280;50333;47.436;21.390;2023-01-29T00:37:02;101250.69;;;1.65;68.91
64086;BME280;50333;47.436;21.390;2023-01-29T00:39:35;101251.25;;;1.45;69.31
64086;BME280;50333;47.436;21.390;2023-01-29T00:42:14;101250.44;;;1.60;68.95
64086;BME280;50333;47.436;21.390;2023-01-29T00:45:00;101251.25;;;1.97;68.45
64086;BME280;50333;47.436;21.390;2023-01-29T00:47:29;101247.09;;;1.96;68.06
64086;BME280;50333;47.436;21.390;2023-01-29T00:50:09;101248.69;;;1.45;69.02
64086;BME280;50333;47.436;21.390;2023-01-29T00:52:38;101244.72;;;1.79;68.82
64086;BME280;50333;47.436;21.390;2023-01-29T00:55:09;101254.25;;;1.49;69.39
64086;BME280;50333;47.436;21.390;2023-01-29T00:57:37;101250.59;;;1.73;69.02
64086;BME280;50333;47.436;21.390;2023-01-29T01:00:09;101245.31;;;1.96;67.93
64086;BME280;50333;47.436;21.390;2023-01-29T01:02:38;101255.84;;;1.65;68.86
64086;BME280;50333;47.436;21.390;2023-01-29T01:05:26;101253.78;;;1.90;68.12
64086;BME280;50333;47.436;21.390;2023-01-29T01:07:56;101257.47;;;2.02;68.01
64086;BME280;50333;47.436;21.390;2023-01-29T01:10:30;101258.84;;;1.68;68.06
64086;BME280;50333;47.436;21.390;2023-01-29T01:13:02;101261.19;;;1.48;69.48
64086;BME280;50333;47.436;21.390;2023-01-29T01:15:35;101250.69;;;1.80;68.38
64086;BME280;50333;47.436;21.390;2023-01-29T01:18:03;101262.78;;;2.01;67.63
64086;BME280;50333;47.436;21.390;2023-01-29T01:20:33;101256.09;;;1.85;68.29
64086;BME280;50333;47.436;21.390;2023-01-29T01:23:02;101259.72;;;2.12;67.38
64086;BME280;50333;47.436;21.390;2023-01-29T01:25:30;101266.03;;;1.73;68.16
64086;BME280;50333;47.436;21.390;2023-01-29T01:28:35;101256.69;;;1.72;68.28
64086;BME280;50333;47.436;21.390;2023-01-29T01:31:10;101255.03;;;1.64;68.78
64086;BME280;50333;47.436;21.390;2023-01-29T01:33:38;101258.84;;;1.68;68.75
64086;BME280;50333;47.436;21.390;2023-01-29T01:36:07;101267.47;;;1.31;69.95
64086;BME280;50333;47.436;21.390;2023-01-29T01:38:37;101267.59;;;1.15;70.66
64086;BME280;50333;47.436;21.390;2023-01-29T01:41:15;101264.44;;;1.12;71.03
64086;BME280;50333;47.436;21.390;2023-01-29T01:46:16;101271.81;;;0.78;71.77
64086;BME280;50333;47.436;21.390;2023-01-29T01:48:46;101266.91;;;1.36;70.29
64086;BME280;50333;47.436;21.390;2023-01-29T01:51:16;101267.63;;;1.44;70.16
64086;BME280;50333;47.436;21.390;2023-01-29T01:53:54;101274.19;;;1.32;69.90
64086;BME280;50333;47.436;21.390;2023-01-29T01:56:29;101280.19;;;1.39;69.85
64086;BME280;50333;47.436;21.390;2023-01-29T01:59:06;101285.72;;;1.36;69.99
64086;BME280;50333;47.436;21.390;2023-01-29T02:01:36;101285.53;;;1.67;69.13
64086;BME280;50333;47.436;21.390;2023-01-29T02:04:16;101287.47;;;1.50;69.79
64086;BME280;50333;47.436;21.390;2023-01-29T02:07:04;101292.38;;;1.60;69.47
64086;BME280;50333;47.436;21.390;2023-01-29T02:12:22;101298.22;;;1.69;68.76
64086;BME280;50333;47.436;21.390;2023-01-29T02:14:50;101303.44;;;1.61;68.84
64086;BME280;50333;47.436;21.390;2023-01-29T02:17:18;101299.34;;;1.81;68.58
64086;BME280;50333;47.436;21.390;2023-01-29T02:36:13;101313.38;;;1.64;69.57
64086;BME280;50333;47.436;21.390;2023-01-29T02:39:27;101321.53;;;1.15;70.57
64086;BME280;50333;47.436;21.390;2023-01-29T02:42:15;101326.91;;;1.43;69.87
64086;BME280;50333;47.436;21.390;2023-01-29T02:44:54;101324.13;;;1.15;71.44
64086;BME280;50333;47.436;21.390;2023-01-29T02:53:09;101335.19;;;1.15;71.22
64086;BME280;50333;47.436;21.390;2023-01-29T02:58:41;101326.00;;;1.36;70.71
64086;BME280;50333;47.436;21.390;2023-01-29T03:01:17;101336.94;;;1.15;71.42
64086;BME280;50333;47.436;21.390;2023-01-29T03:03:52;101338.41;;;1.32;71.41
64086;BME280;50333;47.436;21.390;2023-01-29T03:06:30;101340.69;;;1.27;70.50
64086;BME280;50333;47.436;21.390;2023-01-29T03:09:03;101342.41;;;1.35;70.19
64086;BME280;50333;47.436;21.390;2023-01-29T03:11:41;101337.44;;;1.93;69.14
64086;BME280;50333;47.436;21.390;2023-01-29T03:14:16;101335.78;;;1.85;68.74
64086;BME280;50333;47.436;21.390;2023-01-29T03:16:49;101337.81;;;1.89;68.95
64086;BME280;50333;47.436;21.390;2023-01-29T03:21:56;101343.66;;;1.68;69.31
64086;BME280;50333;47.436;21.390;2023-01-29T03:27:26;101350.34;;;1.78;68.93
64086;BME280;50333;47.436;21.390;2023-01-29T03:30:16;101349.25;;;1.87;69.34
64086;BME280;50333;47.436;21.390;2023-01-29T03:33:07;101355.28;;;1.64;68.98
64086;BME280;50333;47.436;21.390;2023-01-29T03:35:40;101352.53;;;1.66;69.15
64086;BME280;50333;47.436;21.390;2023-01-29T03:38:12;101343.13;;;1.05;71.36
64086;BME280;50333;47.436;21.390;2023-01-29T03:40:49;101351.72;;;1.50;69.98
64086;BME280;50333;47.436;21.390;2023-01-29T03:43:52;101352.75;;;1.26;70.92
64086;BME280;50333;47.436;21.390;2023-01-29T03:46:30;101354.50;;;1.64;69.36
64086;BME280;50333;47.436;21.390;2023-01-29T03:49:18;101358.09;;;1.40;69.75
64086;BME280;50333;47.436;21.390;2023-01-29T03:57:37;101367.69;;;1.76;68.38
64086;BME280;50333;47.436;21.390;2023-01-29T04:00:16;101370.69;;;1.64;68.54
64086;BME280;50333;47.436;21.390;2023-01-29T04:05:23;101368.13;;;1.79;68.56
64086;BME280;50333;47.436;21.390;2023-01-29T04:08:00;101367.38;;;1.03;70.54
64086;BME280;50333;47.436;21.390;2023-01-29T04:10:32;101377.19;;;1.22;70.31
64086;BME280;50333;47.436;21.390;2023-01-29T04:13:05;101375.75;;;1.58;69.07
64086;BME280;50333;47.436;21.390;2023-01-29T04:15:42;101376.03;;;1.25;70.65
64086;BME280;50333;47.436;21.390;2023-01-29T04:18:12;101373.91;;;1.13;70.80
64086;BME280;50333;47.436;21.390;2023-01-29T04:20:41;101376.72;;;1.57;69.32
64086;BME280;50333;47.436;21.390;2023-01-29T04:23:20;101377.50;;;2.02;68.05
64086;BME280;50333;47.436;21.390;2023-01-29T04:26:12;101374.50;;;1.68;69.06
64086;BME280;50333;47.436;21.390;2023-01-29T04:31:27;101374.03;;;1.35;69.45
64086;BME280;50333;47.436;21.390;2023-01-29T04:34:11;101368.47;;;1.08;70.96
64086;BME280;50333;47.436;21.390;2023-01-29T04:39:48;101372.75;;;1.69;69.02
64086;BME280;50333;47.436;21.390;2023-01-29T04:42:36;101366.28;;;1.73;68.94
64086;BME280;50333;47.436;21.390;2023-01-29T04:48:03;101367.94;;;1.36;69.63
64086;BME280;50333;47.436;21.390;2023-01-29T04:50:43;101366.44;;;1.57;68.95
64086;BME280;50333;47.436;21.390;2023-01-29T04:53:37;101361.56;;;1.62;69.03
64086;BME280;50333;47.436;21.390;2023-01-29T04:56:22;101360.53;;;1.71;68.39
64086;BME280;50333;47.436;21.390;2023-01-29T04:59:06;101361.84;;;1.52;68.41
64086;BME280;50333;47.436;21.390;2023-01-29T05:01:36;101366.56;;;1.25;69.74
64086;BME280;50333;47.436;21.390;2023-01-29T05:04:08;101378.66;;;1.55;68.29
64086;BME280;50333;47.436;21.390;2023-01-29T05:06:38;101372.03;;;2.05;67.12
64086;BME280;50333;47.436;21.390;2023-01-29T05:09:08;101377.88;;;1.84;67.43
64086;BME280;50333;47.436;21.390;2023-01-29T05:11:36;101374.06;;;1.95;67.62
64086;BME280;50333;47.436;21.390;2023-01-29T05:14:06;101373.34;;;1.86;67.60
64086;BME280;50333;47.436;21.390;2023-01-29T05:16:42;101369.78;;;1.42;68.92
64086;BME280;50333;47.436;21.390;2023-01-29T05:19:13;101368.06;;;1.73;67.98
64086;BME280;50333;47.436;21.390;2023-01-29T05:21:47;101367.62;;;1.99;67.90
64086;BME280;50333;47.436;21.390;2023-01-29T05:24:18;101372.03;;;2.05;66.60
64086;BME280;50333;47.436;21.390;2023-01-29T05:26:48;101381.34;;;2.06;67.03
64086;BME280;50333;47.436;21.390;2023-01-29T05:29:35;101378.34;;;2.02;67.47
64086;BME280;50333;47.436;21.390;2023-01-29T05:32:03;101379.81;;;1.67;68.86
64086;BME280;50333;47.436;21.390;2023-01-29T05:34:31;101376.37;;;2.04;67.24
64086;BME280;50333;47.436;21.390;2023-01-29T05:36:58;101385.06;;;2.03;66.87
64086;BME280;50333;47.436;21.390;2023-01-29T05:39:26;101376.81;;;1.93;66.73
64086;BME280;50333;47.436;21.390;2023-01-29T05:41:55;101377.44;;;2.10;65.98
64086;BME280;50333;47.436;21.390;2023-01-29T05:44:22;101383.03;;;1.99;65.91
64086;BME280;50333;47.436;21.390;2023-01-29T05:46:50;101386.37;;;1.84;66.64
64086;BME280;50333;47.436;21.390;2023-01-29T05:49:18;101384.62;;;2.00;67.04
64086;BME280;50333;47.436;21.390;2023-01-29T05:51:47;101386.72;;;2.41;65.40
64086;BME280;50333;47.436;21.390;2023-01-29T05:54:14;101387.56;;;2.48;64.75
64086;BME280;50333;47.436;21.390;2023-01-29T05:56:42;101390.38;;;2.32;65.20
64086;BME280;50333;47.436;21.390;2023-01-29T05:59:10;101393.06;;;2.60;64.98
64086;BME280;50333;47.436;21.390;2023-01-29T06:01:38;101380.88;;;2.17;65.70
64086;BME280;50333;47.436;21.390;2023-01-29T06:04:06;101386.97;;;2.46;64.82
64086;BME280;50333;47.436;21.390;2023-01-29T06:06:34;101395.25;;;2.26;65.04
64086;BME280;50333;47.436;21.390;2023-01-29T06:09:01;101395.44;;;2.25;65.48
64086;BME280;50333;47.436;21.390;2023-01-29T06:11:29;101391.59;;;2.72;64.09
64086;BME280;50333;47.436;21.390;2023-01-29T06:13:57;101398.31;;;2.37;64.15
64086;BME280;50333;47.436;21.390;2023-01-29T06:16:25;101392.38;;;2.73;64.06
64086;BME280;50333;47.436;21.390;2023-01-29T06:18:53;101397.94;;;2.55;63.92
64086;BME280;50333;47.436;21.390;2023-01-29T06:21:21;101392.53;;;2.50;64.36
64086;BME280;50333;47.436;21.390;2023-01-29T06:23:51;101400.25;;;2.50;64.26
64086;BME280;50333;47.436;21.390;2023-01-29T06:26:19;101399.47;;;2.49;64.59
64086;BME280;50333;47.436;21.390;2023-01-29T06:28:48;101406.97;;;2.87;63.88
64086;BME280;50333;47.436;21.390;2023-01-29T06:31:16;101413.91;;;2.65;64.46
64086;BME280;50333;47.436;21.390;2023-01-29T06:34:08;101414.59;;;2.22;65.46
64086;BME280;50333;47.436;21.390;2023-01-29T06:36:36;101418.06;;;2.00;66.38
64086;BME280;50333;47.436;21.390;2023-01-29T06:39:03;101417.50;;;2.34;65.04
64086;BME280;50333;47.436;21.390;2023-01-29T06:41:32;101419.38;;;2.25;64.56
64086;BME280;50333;47.436;21.390;2023-01-29T06:43:59;101433.56;;;2.51;64.55
64086;BME280;50333;47.436;21.390;2023-01-29T06:46:27;101431.66;;;2.60;63.94
64086;BME280;50333;47.436;21.390;2023-01-29T06:48:59;101439.50;;;2.88;63.13
64086;BME280;50333;47.436;21.390;2023-01-29T06:51:27;101437.72;;;3.10;62.99
64086;BME280;50333;47.436;21.390;2023-01-29T06:53:54;101440.22;;;2.82;63.50
64086;BME280;50333;47.436;21.390;2023-01-29T06:56:23;101449.28;;;2.99;63.15
64086;BME280;50333;47.436;21.390;2023-01-29T06:58:51;101448.25;;;2.72;63.90
64086;BME280;50333;47.436;21.390;2023-01-29T07:01:19;101447.91;;;2.60;63.78
64086;BME280;50333;47.436;21.390;2023-01-29T07:04:02;101452.47;;;2.80;63.90
64086;BME280;50333;47.436;21.390;2023-01-29T07:06:30;101452.19;;;2.90;63.09
64086;BME280;50333;47.436;21.390;2023-01-29T07:08:58;101447.41;;;3.08;62.94
64086;BME280;50333;47.436;21.390;2023-01-29T07:11:26;101448.81;;;3.32;62.16
64086;BME280;50333;47.436;21.390;2023-01-29T07:13:54;101456.78;;;3.37;61.47
64086;BME280;50333;47.436;21.390;2023-01-29T07:16:22;101444.88;;;2.93;62.42
64086;BME280;50333;47.436;21.390;2023-01-29T07:18:50;101450.72;;;3.24;61.80
64086;BME280;50333;47.436;21.390;2023-01-29T07:21:18;101449.97;;;3.08;61.96
64086;BME280;50333;47.436;21.390;2023-01-29T07:23:45;101453.97;;;2.89;61.70
64086;BME280;50333;47.436;21.390;2023-01-29T07:26:14;101457.63;;;2.80;63.01
64086;BME280;50333;47.436;21.390;2023-01-29T07:28:41;101452.28;;;2.81;62.09
64086;BME280;50333;47.436;21.390;2023-01-29T07:31:11;101445.12;;;3.20;61.85
64086;BME280;50333;47.436;21.390;2023-01-29T07:33:42;101445.75;;;3.00;61.75
64086;BME280;50333;47.436;21.390;2023-01-29T07:36:11;101446.63;;;3.29;61.41
64086;BME280;50333;47.436;21.390;2023-01-29T07:38:40;101446.28;;;2.74;63.11
64086;BME280;50333;47.436;21.390;2023-01-29T07:41:09;101448.59;;;2.69;63.29
64086;BME280;50333;47.436;21.390;2023-01-29T07:43:37;101441.56;;;2.99;62.26
64086;BME280;50333;47.436;21.390;2023-01-29T07:46:05;101451.41;;;2.38;64.21
64086;BME280;50333;47.436;21.390;2023-01-29T07:48:33;101446.34;;;2.15;63.77
64086;BME280;50333;47.436;21.390;2023-01-29T07:51:01;101444.84;;;2.35;63.66
64086;BME280;50333;47.436;21.390;2023-01-29T07:53:29;101442.44;;;2.34;64.05
64086;BME280;50333;47.436;21.390;2023-01-29T07:55:57;101442.41;;;1.74;65.77
64086;BME280;50333;47.436;21.390;2023-01-29T07:58:25;101442.06;;;2.37;64.53
64086;BME280;50333;47.436;21.390;2023-01-29T08:00:53;101446.25;;;2.23;64.53
64086;BME280;50333;47.436;21.390;2023-01-29T08:03:21;101439.06;;;2.03;64.55
64086;BME280;50333;47.436;21.390;2023-01-29T08:05:48;101448.03;;;2.07;65.27
64086;BME280;50333;47.436;21.390;2023-01-29T08:08:16;101444.94;;;2.12;64.66
64086;BME280;50333;47.436;21.390;2023-01-29T08:10:46;101446.44;;;2.36;63.30
64086;BME280;50333;47.436;21.390;2023-01-29T08:13:14;101451.22;;;2.24;64.11
64086;BME280;50333;47.436;21.390;2023-01-29T08:15:42;101450.22;;;1.81;65.04
64086;BME280;50333;47.436;21.390;2023-01-29T08:18:12;101446.50;;;1.98;65.31
64086;BME280;50333;47.436;21.390;2023-01-29T08:20:41;101442.88;;;2.37;64.65
64086;BME280;50333;47.436;21.390;2023-01-29T08:23:14;101444.38;;;2.47;64.21
64086;BME280;50333;47.436;21.390;2023-01-29T08:25:43;101442.91;;;2.74;63.40
64086;BME280;50333;47.436;21.390;2023-01-29T08:28:11;101445.75;;;2.79;62.97
64086;BME280;50333;47.436;21.390;2023-01-29T08:30:38;101446.47;;;2.73;63.10
64086;BME280;50333;47.436;21.390;2023-01-29T08:33:07;101447.22;;;2.52;64.16
64086;BME280;50333;47.436;21.390;2023-01-29T08:35:35;101443.84;;;2.51;63.69
64086;BME280;50333;47.436;21.390;2023-01-29T08:38:03;101448.22;;;2.21;64.32
64086;BME280;50333;47.436;21.390;2023-01-29T08:40:33;101446.28;;;2.74;63.42
64086;BME280;50333;47.436;21.390;2023-01-29T08:43:06;101448.13;;;2.44;64.08
64086;BME280;50333;47.436;21.390;2023-01-29T08:45:38;101457.97;;;2.11;64.29
64086;BME280;50333;47.436;21.390;2023-01-29T08:48:07;101456.28;;;2.33;64.15
64086;BME280;50333;47.436;21.390;2023-01-29T08:50:36;101459.00;;;2.61;63.20
64086;BME280;50333;47.436;21.390;2023-01-29T08:53:05;101463.34;;;2.60;63.55
64086;BME280;50333;47.436;21.390;2023-01-29T08:55:38;101473.41;;;1.96;65.80
64086;BME280;50333;47.436;21.390;2023-01-29T08:58:09;101472.50;;;2.33;65.16
64086;BME280;50333;47.436;21.390;2023-01-29T09:00:37;101462.94;;;2.78;63.78
64086;BME280;50333;47.436;21.390;2023-01-29T09:03:05;101470.63;;;2.57;64.06
64086;BME280;50333;47.436;21.390;2023-01-29T09:05:36;101467.72;;;2.60;64.00
64086;BME280;50333;47.436;21.390;2023-01-29T09:08:04;101476.12;;;2.69;63.97
64086;BME280;50333;47.436;21.390;2023-01-29T09:10:33;101475.53;;;2.52;64.47
64086;BME280;50333;47.436;21.390;2023-01-29T09:13:01;101475.16;;;2.55;64.06
64086;BME280;50333;47.436;21.390;2023-01-29T09:15:29;101476.75;;;2.71;64.15
64086;BME280;50333;47.436;21.390;2023-01-29T09:18:01;101481.28;;;3.05;63.35
64086;BME280;50333;47.436;21.390;2023-01-29T09:20:31;101493.63;;;2.58;63.88
64086;BME280;50333;47.436;21.390;2023-01-29T09:23:06;101487.50;;;2.30;64.81
64086;BME280;50333;47.436;21.390;2023-01-29T09:25:36;101484.66;;;2.54;65.43
64086;BME280;50333;47.436;21.390;2023-01-29T09:28:04;101484.03;;;3.04;63.70
64086;BME280;50333;47.436;21.390;2023-01-29T09:30:36;101479.31;;;3.07;63.15
64086;BME280;50333;47.436;21.390;2023-01-29T09:33:05;101482.31;;;2.89;64.00
64086;BME280;50333;47.436;21.390;2023-01-29T09:35:33;101478.50;;;3.50;62.44
64086;BME280;50333;47.436;21.390;2023-01-29T09:38:01;101491.88;;;2.44;64.72
64086;BME280;50333;47.436;21.390;2023-01-29T09:40:37;101489.88;;;2.76;64.88
64086;BME280;50333;47.436;21.390;2023-01-29T09:43:20;101494.44;;;2.44;64.65
64086;BME280;50333;47.436;21.390;2023-01-29T09:46:05;101495.88;;;2.32;64.89
64086;BME280;50333;47.436;21.390;2023-01-29T09:48:40;101496.38;;;2.72;64.42
64086;BME280;50333;47.436;21.390;2023-01-29T09:51:18;101498.78;;;2.29;65.89
64086;BME280;50333;47.436;21.390;2023-01-29T09:54:01;101492.97;;;3.08;64.42
64086;BME280;50333;47.436;21.390;2023-01-29T09:56:31;101496.75;;;2.90;64.77
64086;BME280;50333;47.436;21.390;2023-01-29T09:58:59;101500.47;;;3.02;64.44
64086;BME280;50333;47.436;21.390;2023-01-29T10:04:25;101497.13;;;3.45;63.71
64086;BME280;50333;47.436;21.390;2023-01-29T10:09:59;101492.69;;;3.89;62.44
64086;BME280;50333;47.436;21.390;2023-01-29T10:12:52;101490.72;;;3.91;62.17
64086;BME280;50333;47.436;21.390;2023-01-29T10:23:39;101501.69;;;3.71;62.47
64086;BME280;50333;47.436;21.390;2023-01-29T10:26:12;101495.78;;;3.28;62.60
64086;BME280;50333;47.436;21.390;2023-01-29T10:28:45;101486.00;;;3.23;63.91
64086;BME280;50333;47.436;21.390;2023-01-29T10:31:17;101492.50;;;3.40;63.48
64086;BME280;50333;47.436;21.390;2023-01-29T10:33:53;101480.59;;;3.39;62.62
64086;BME280;50333;47.436;21.390;2023-01-29T10:39:03;101489.44;;;3.30;63.34
64086;BME280;50333;47.436;21.390;2023-01-29T10:44:45;101485.13;;;2.58;64.25
64086;BME280;50333;47.436;21.390;2023-01-29T10:47:26;101483.53;;;3.15;62.79
64086;BME280;50333;47.436;21.390;2023-01-29T10:55:56;101486.53;;;2.97;64.25
64086;BME280;50333;47.436;21.390;2023-01-29T10:58:50;101468.59;;;3.47;62.78
64086;BME280;50333;47.436;21.390;2023-01-29T11:01:18;101463.53;;;3.38;61.50
64086;BME280;50333;47.436;21.390;2023-01-29T11:03:55;101459.84;;;3.05;62.74
64086;BME280;50333;47.436;21.390;2023-01-29T11:09:33;101457.63;;;2.80;62.44
64086;BME280;50333;47.436;21.390;2023-01-29T11:17:24;101449.63;;;3.33;61.08
64086;BME280;50333;47.436;21.390;2023-01-29T11:19:54;101442.69;;;3.33;61.18
64086;BME280;50333;47.436;21.390;2023-01-29T11:22:24;101438.13;;;3.35;61.32
64086;BME280;50333;47.436;21.390;2023-01-29T11:25:23;101442.94;;;3.38;61.08
64086;BME280;50333;47.436;21.390;2023-01-29T11:27:54;101436.69;;;3.26;60.25
64086;BME280;50333;47.436;21.390;2023-01-29T11:30:32;101436.34;;;3.36;61.21
64086;BME280;50333;47.436;21.390;2023-01-29T11:35:31;101432.44;;;3.40;59.95
64086;BME280;50333;47.436;21.390;2023-01-29T11:40:43;101433.06;;;2.99;61.57
64086;BME280;50333;47.436;21.390;2023-01-29T11:45:57;101424.69;;;3.18;61.79
64086;BME280;50333;47.436;21.390;2023-01-29T11:48:43;101425.84;;;3.37;61.57
64086;BME280;50333;47.436;21.390;2023-01-29T11:51:24;101423.63;;;3.56;61.14
64086;BME280;50333;47.436;21.390;2023-01-29T11:53:55;101421.94;;;3.42;61.31
64086;BME280;50333;47.436;21.390;2023-01-29T11:56:40;101419.94;;;2.94;62.11
64086;BME280;50333;47.436;21.390;2023-01-29T11:59:39;101421.50;;;3.66;60.62
64086;BME280;50333;47.436;21.390;2023-01-29T12:05:18;101422.69;;;3.92;59.66
64086;BME280;50333;47.436;21.390;2023-01-29T12:07:49;101409.69;;;3.78;59.99
64086;BME280;50333;47.436;21.390;2023-01-29T12:10:37;101409.97;;;3.97;59.28
64086;BME280;50333;47.436;21.390;2023-01-29T12:13:19;101401.03;;;3.93;58.98
64086;BME280;50333;47.436;21.390;2023-01-29T12:16:14;101401.56;;;4.17;58.61
64086;BME280;50333;47.436;21.390;2023-01-29T12:18:49;101393.91;;;3.95;59.40
64086;BME280;50333;47.436;21.390;2023-01-29T12:21:32;101395.50;;;3.96;58.70
64086;BME280;50333;47.436;21.390;2023-01-29T12:27:08;101387.53;;;3.91;58.92
64086;BME280;50333;47.436;21.390;2023-01-29T12:29:51;101391.56;;;4.07;58.38
64086;BME280;50333;47.436;21.390;2023-01-29T12:32:34;101378.56;;;4.22;57.12
64086;BME280;50333;47.436;21.390;2023-01-29T12:35:36;101379.72;;;4.19;57.19
64086;BME280;50333;47.436;21.390;2023-01-29T12:38:20;101385.41;;;3.66;57.79
64086;BME280;50333;47.436;21.390;2023-01-29T12:41:04;101374.81;;;4.31;55.62
64086;BME280;50333;47.436;21.390;2023-01-29T12:43:39;101378.78;;;4.27;56.56
64086;BME280;50333;47.436;21.390;2023-01-29T12:48:48;101383.97;;;3.92;57.89
64086;BME280;50333;47.436;21.390;2023-01-29T12:51:24;101382.06;;;4.14;58.01
64086;BME280;50333;47.436;21.390;2023-01-29T12:53:54;101395.03;;;3.86;58.15
64086;BME280;50333;47.436;21.390;2023-01-29T12:56:45;101400.28;;;4.06;57.74
64086;BME280;50333;47.436;21.390;2023-01-29T12:59:41;101400.34;;;3.77;58.21
64086;BME280;50333;47.436;21.390;2023-01-29T13:04:56;101394.06;;;4.35;57.02
64086;BME280;50333;47.436;21.390;2023-01-29T13:07:30;101385.13;;;4.31;57.11
64086;BME280;50333;47.436;21.390;2023-01-29T13:10:15;101394.13;;;4.00;57.00
64086;BME280;50333;47.436;21.390;2023-01-29T13:12:58;101384.81;;;4.61;56.30
64086;BME280;50333;47.436;21.390;2023-01-29T13:15:37;101388.75;;;4.43;56.25
64086;BME280;50333;47.436;21.390;2023-01-29T13:20:47;101382.03;;;4.62;55.80
64086;BME280;50333;47.436;21.390;2023-01-29T13:23:24;101382.44;;;4.66;55.18
64086;BME280;50333;47.436;21.390;2023-01-29T13:25:55;101376.47;;;4.59;55.34
64086;BME280;50333;47.436;21.390;2023-01-29T13:28:25;101375.91;;;4.83;54.80
64086;BME280;50333;47.436;21.390;2023-01-29T13:31:19;101364.38;;;4.79;54.47
64086;BME280;50333;47.436;21.390;2023-01-29T13:34:13;101365.16;;;4.73;54.81
64086;BME280;50333;47.436;21.390;2023-01-29T13:36:42;101358.81;;;4.89;54.63
64086;BME280;50333;47.436;21.390;2023-01-29T13:39:45;101357.22;;;4.81;54.65
64086;BME280;50333;47.436;21.390;2023-01-29T13:45:00;101349.28;;;4.83;53.60
64086;BME280;50333;47.436;21.390;2023-01-29T13:47:30;101352.34;;;4.25;55.32
64086;BME280;50333;47.436;21.390;2023-01-29T13:55:06;101355.84;;;4.72;54.71
64086;BME280;50333;47.436;21.390;2023-01-29T14:03:31;101349.44;;;4.61;55.01
64086;BME280;50333;47.436;21.390;2023-01-29T14:05:38;101341.69;;;4.61;55.34
64086;BME280;50333;47.436;21.390;2023-01-29T14:10:42;101349.00;;;4.38;55.06
64086;BME280;50333;47.436;21.390;2023-01-29T14:18:25;101348.28;;;4.90;54.08
64086;BME280;50333;47.436;21.390;2023-01-29T14:20:59;101346.72;;;4.89;54.30
64086;BME280;50333;47.436;21.390;2023-01-29T14:25:58;101345.69;;;4.77;53.94
64086;BME280;50333;47.436;21.390;2023-01-29T14:28:31;101349.59;;;4.33;55.16
64086;BME280;50333;47.436;21.390;2023-01-29T14:31:01;101348.47;;;4.62;54.72
64086;BME280;50333;47.436;21.390;2023-01-29T14:33:34;101346.03;;;4.47;55.43
64086;BME280;50333;47.436;21.390;2023-01-29T14:36:06;101340.50;;;4.77;54.94
64086;BME280;50333;47.436;21.390;2023-01-29T14:38:36;101352.25;;;4.80;54.42
64086;BME280;50333;47.436;21.390;2023-01-29T14:41:17;101339.34;;;4.80;54.16
64086;BME280;50333;47.436;21.390;2023-01-29T14:43:49;101336.94;;;4.51;54.65
64086;BME280;50333;47.436;21.390;2023-01-29T14:49:00;101333.19;;;4.74;53.65
64086;BME280;50333;47.436;21.390;2023-01-29T14:51:35;101341.44;;;4.29;54.49
64086;BME280;50333;47.436;21.390;2023-01-29T14:54:24;101341.59;;;4.14;55.19
64086;BME280;50333;47.436;21.390;2023-01-29T14:56:57;101338.22;;;4.21;53.93
64086;BME280;50333;47.436;21.390;2023-01-29T14:59:59;101328.78;;;4.68;52.79
64086;BME280;50333;47.436;21.390;2023-01-29T15:02:39;101325.44;;;4.74;52.74
64086;BME280;50333;47.436;21.390;2023-01-29T15:05:15;101329.41;;;4.90;52.21
64086;BME280;50333;47.436;21.390;2023-01-29T15:07:53;101331.81;;;4.91;52.78
64086;BME280;50333;47.436;21.390;2023-01-29T15:10:32;101328.00;;;4.94;52.40
64086;BME280;50333;47.436;21.390;2023-01-29T15:13:24;101323.66;;;4.81;52.94
64086;BME280;50333;47.436;21.390;2023-01-29T15:16:18;101333.38;;;4.66;53.57
64086;BME280;50333;47.436;21.390;2023-01-29T15:18:51;101350.00;;;4.43;54.12
64086;BME280;50333;47.436;21.390;2023-01-29T15:21:21;101352.81;;;4.55;54.34
64086;BME280;50333;47.436;21.390;2023-01-29T15:24:02;101346.31;;;4.79;53.98
64086;BME280;50333;47.436;21.390;2023-01-29T15:26:31;101342.72;;;4.80;53.63
64086;BME280;50333;47.436;21.390;2023-01-29T15:29:00;101340.94;;;4.81;53.51
64086;BME280;50333;47.436;21.390;2023-01-29T15:31:33;101342.69;;;4.53;54.07
64086;BME280;50333;47.436;21.390;2023-01-29T15:34:05;101342.66;;;4.47;54.27
64086;BME280;50333;47.436;21.390;2023-01-29T15:36:35;101351.19;;;4.47;54.69
64086;BME280;50333;47.436;21.390;2023-01-29T15:39:24;101343.72;;;4.79;54.19
64086;BME280;50333;47.436;21.390;2023-01-29T15:42:13;101332.97;;;4.69;54.24